Time;durP1;ratioP1;P1;durP2;ratioP2;P2;SDS_P1;SDS_P2;PMS_P1;PMS_P2;Temp;Humidity;BMP_temperature;BMP_pressure;BME280_temperature;BME280_humidity;BME280_pressure;Samples;Min_cycle;Max_cycle;Signal;HPM_P1;HPM_P2
2022/03/31 00:00:17;;;;;;;64.10;28.80;;;;;;;;;;5089196;28;20043;-81
2022/03/31 00:02:44;;;;;;;59.55;26.02;;;;;;;;;;5089116;28;20085;-82
2022/03/31 00:05:10;;;;;;;63.17;27.80;;;;;;;;;;5088839;28;20039;-82
2022/03/31 00:07:47;;;;;;;64.13;28.30;;;;;;;;;;5089243;28;20024;-82
2022/03/31 00:10:13;;;;;;;59.88;28.40;;;;;;;;;;5088983;28;20510;-83
2022/03/31 00:12:39;;;;;;;63.00;27.85;;;;;;;;;;5090337;28;20020;-83
2022/03/31 00:15:05;;;;;;;69.63;29.45;;;;;;;;;;5093904;28;20028;-82
2022/03/31 00:17:31;;;;;;;65.13;30.42;;;;;;;;;;5093404;28;20027;-84
2022/03/31 00:19:57;;;;;;;54.47;26.20;;;;;;;;;;5091519;28;20032;-85
2022/03/31 00:22:23;;;;;;;52.00;26.15;;;;;;;;;;5092845;28;20020;-81
2022/03/31 00:24:49;;;;;;;71.32;27.75;;;;;;;;;;5092811;28;20036;-84
2022/03/31 00:27:15;;;;;;;66.82;28.38;;;;;;;;;;5091477;28;20036;-83
2022/03/31 00:29:41;;;;;;;61.88;26.85;;;;;;;;;;5092726;28;20514;-84
2022/03/31 00:32:08;;;;;;;52.45;26.17;;;;;;;;;;5093158;28;20032;-81
2022/03/31 00:34:35;;;;;;;56.38;26.73;;;;;;;;;;5093430;28;20024;-82
2022/03/31 00:37:01;;;;;;;52.60;25.00;;;;;;;;;;5092593;28;20107;-81
2022/03/31 00:39:32;;;;;;;53.45;23.52;;;;;;;;;;5091402;28;20393;-81
2022/03/31 00:41:59;;;;;;;56.33;25.98;;;;;;;;;;5092617;28;20355;-84
2022/03/31 00:44:25;;;;;;;50.95;24.00;;;;;;;;;;5092543;28;20048;-82
2022/03/31 00:46:53;;;;;;;63.00;27.77;;;;;;;;;;5092332;28;20036;-84
2022/03/31 00:49:20;;;;;;;66.85;29.55;;;;;;;;;;5092327;28;20024;-81
2022/03/31 00:51:46;;;;;;;66.60;30.23;;;;;;;;;;5092424;28;20028;-82
2022/03/31 00:54:12;;;;;;;53.25;25.15;;;;;;;;;;5092124;28;20032;-84
2022/03/31 00:56:39;;;;;;;65.60;28.25;;;;;;;;;;5092921;28;20165;-81
2022/03/31 00:59:09;;;;;;;62.92;27.83;;;;;;;;;;5093020;28;20024;-81
2022/03/31 01:01:36;;;;;;;54.33;26.27;;;;;;;;;;5092860;28;20028;-82
2022/03/31 01:04:03;;;;;;;51.55;25.05;;;;;;;;;;5090747;28;20020;-83
2022/03/31 01:06:29;;;;;;;67.22;31.75;;;;;;;;;;5092068;28;20028;-84
2022/03/31 01:08:55;;;;;;;73.13;31.65;;;;;;;;;;5092095;28;20073;-85
2022/03/31 01:11:21;;;;;;;55.03;25.95;;;;;;;;;;5091963;28;20024;-84
2022/03/31 01:13:48;;;;;;;58.67;27.00;;;;;;;;;;5092001;28;20052;-84
2022/03/31 01:16:14;;;;;;;58.05;26.58;;;;;;;;;;5091983;28;20022;-85
2022/03/31 01:18:40;;;;;;;55.35;26.20;;;;;;;;;;5092380;28;20062;-83
2022/03/31 01:21:06;;;;;;;48.45;24.33;;;;;;;;;;5092710;28;20050;-84
2022/03/31 01:23:32;;;;;;;50.38;24.85;;;;;;;;;;5090907;28;20024;-84
2022/03/31 01:25:58;;;;;;;46.75;23.27;;;;;;;;;;5091450;28;20032;-84
2022/03/31 01:28:24;;;;;;;61.08;27.23;;;;;;;;;;5091647;28;20099;-84
2022/03/31 01:30:50;;;;;;;67.28;29.00;;;;;;;;;;5091599;28;20035;-85
2022/03/31 01:33:17;;;;;;;53.17;26.63;;;;;;;;;;5091143;28;20024;-84
2022/03/31 01:35:43;;;;;;;69.22;30.33;;;;;;;;;;5092156;28;20533;-84
2022/03/31 01:38:09;;;;;;;71.43;31.17;;;;;;;;;;5092604;28;20111;-85
2022/03/31 01:40:36;;;;;;;53.38;26.35;;;;;;;;;;5091413;28;20068;-84
2022/03/31 01:43:02;;;;;;;62.50;27.63;;;;;;;;;;5091343;28;20107;-84
2022/03/31 01:45:28;;;;;;;70.07;30.30;;;;;;;;;;5091245;28;20040;-85
2022/03/31 01:47:55;;;;;;;73.07;31.20;;;;;;;;;;5091335;28;20024;-85
2022/03/31 01:50:21;;;;;;;75.63;32.83;;;;;;;;;;5091280;28;20021;-84
2022/03/31 01:52:47;;;;;;;80.28;32.35;;;;;;;;;;5091191;28;20032;-84
2022/03/31 01:55:13;;;;;;;68.00;27.20;;;;;;;;;;5089866;28;20024;-83
2022/03/31 01:57:39;;;;;;;73.00;28.80;;;;;;;;;;5092100;28;20030;-86
2022/03/31 02:00:06;;;;;;;52.95;27.23;;;;;;;;;;5091112;28;20441;-85
2022/03/31 02:02:32;;;;;;;68.57;31.60;;;;;;;;;;5091042;28;20446;-85
2022/03/31 02:04:58;;;;;;;70.82;29.65;;;;;;;;;;5091017;28;20028;-86
2022/03/31 02:07:24;;;;;;;63.63;27.27;;;;;;;;;;5090978;28;20027;-84
2022/03/31 02:09:50;;;;;;;74.43;32.38;;;;;;;;;;5090967;28;20028;-85
2022/03/31 02:12:16;;;;;;;56.15;26.80;;;;;;;;;;5091096;28;20373;-85
2022/03/31 02:14:42;;;;;;;58.10;26.40;;;;;;;;;;5091539;28;20027;-84
2022/03/31 02:17:09;;;;;;;55.50;27.92;;;;;;;;;;5091586;28;20024;-84
2022/03/31 02:19:36;;;;;;;64.30;28.88;;;;;;;;;;5090855;28;20417;-83
2022/03/31 02:22:02;;;;;;;62.30;31.60;;;;;;;;;;5090674;28;20073;-83
2022/03/31 02:24:29;;;;;;;51.03;26.70;;;;;;;;;;5090487;28;20025;-85
2022/03/31 02:26:56;;;;;;;57.47;27.05;;;;;;;;;;5090553;28;20510;-84
2022/03/31 02:29:21;;;;;;;53.90;26.90;;;;;;;;;;5090336;28;20397;-83
2022/03/31 02:31:48;;;;;;;45.80;24.45;;;;;;;;;;5090362;28;20024;-84
2022/03/31 02:34:17;;;;;;;46.15;24.80;;;;;;;;;;5089592;28;20407;-81
2022/03/31 02:36:44;;;;;;;55.53;25.92;;;;;;;;;;5089683;28;20030;-84
2022/03/31 02:39:11;;;;;;;56.08;28.63;;;;;;;;;;5091096;28;20146;-85
2022/03/31 02:41:38;;;;;;;50.45;25.75;;;;;;;;;;5090165;28;20468;-84
2022/03/31 02:44:04;;;;;;;59.42;25.58;;;;;;;;;;5090181;28;20056;-83
2022/03/31 02:46:30;;;;;;;80.90;33.58;;;;;;;;;;5090236;28;20073;-86
2022/03/31 02:48:56;;;;;;;68.70;30.20;;;;;;;;;;5090217;28;20028;-84
2022/03/31 02:51:23;;;;;;;81.05;32.08;;;;;;;;;;5090090;28;20434;-84
2022/03/31 02:56:34;;;;;;;65.00;30.25;;;;;;;;;;5089901;28;20090;-84
2022/03/31 02:59:00;;;;;;;63.55;29.75;;;;;;;;;;5088617;28;20067;-84
2022/03/31 03:01:27;;;;;;;73.40;32.92;;;;;;;;;;5089953;28;20051;-85
2022/03/31 03:03:53;;;;;;;67.70;30.98;;;;;;;;;;5088507;28;20098;-85
2022/03/31 03:06:19;;;;;;;59.65;29.25;;;;;;;;;;5088662;28;20055;-84
2022/03/31 03:08:46;;;;;;;56.40;26.23;;;;;;;;;;5088910;28;20032;-82
2022/03/31 03:11:14;;;;;;;57.92;29.23;;;;;;;;;;5089464;28;20028;-86
2022/03/31 03:13:40;;;;;;;59.83;25.13;;;;;;;;;;5090024;28;20024;-88
2022/03/31 03:16:08;;;;;;;53.80;24.02;;;;;;;;;;5088479;28;20093;-86
2022/03/31 03:18:37;;;;;;;55.20;26.77;;;;;;;;;;5090000;28;20020;-83
2022/03/31 03:21:04;;;;;;;76.85;31.75;;;;;;;;;;5088525;28;20480;-85
2022/03/31 03:23:31;;;;;;;80.85;32.65;;;;;;;;;;5089643;28;20019;-86
2022/03/31 03:25:57;;;;;;;90.90;43.90;;;;;;;;;;5089694;28;20123;-86
2022/03/31 03:28:23;;;;;;;78.05;35.83;;;;;;;;;;5089684;28;20023;-87
2022/03/31 03:30:49;;;;;;;84.35;31.27;;;;;;;;;;5089809;28;20028;-89
2022/03/31 03:33:15;;;;;;;73.18;32.97;;;;;;;;;;5090672;28;20098;-88
2022/03/31 03:35:41;;;;;;;72.78;30.20;;;;;;;;;;5088561;28;20119;-87
2022/03/31 03:38:08;;;;;;;77.82;41.17;;;;;;;;;;5089541;28;20039;-88
2022/03/31 03:40:34;;;;;;;75.70;32.97;;;;;;;;;;5090014;28;20020;-85
2022/03/31 03:43:00;;;;;;;169.05;70.85;;;;;;;;;;5089573;28;20450;-84
2022/03/31 03:45:26;;;;;;;206.23;70.38;;;;;;;;;;5089484;28;20043;-88
2022/03/31 03:47:52;;;;;;;59.03;27.77;;;;;;;;;;5087216;28;20024;-88
2022/03/31 03:50:20;;;;;;;66.70;29.67;;;;;;;;;;5088305;28;20028;-88
2022/03/31 03:52:47;;;;;;;60.00;28.60;;;;;;;;;;5088936;28;20024;-87
2022/03/31 03:55:13;;;;;;;62.28;27.88;;;;;;;;;;5090505;28;20107;-88
2022/03/31 03:57:50;;;;;;;59.50;25.85;;;;;;;;;;5088965;28;20059;-88
2022/03/31 04:00:19;;;;;;;49.47;25.90;;;;;;;;;;5089963;28;20052;-91
2022/03/31 04:02:45;;;;;;;;;;;;;;;;;;5090862;28;20031;-88
2022/03/31 04:05:11;;;;;;;59.00;26.35;;;;;;;;;;5089824;28;19957;-89
2022/03/31 04:07:37;;;;;;;56.03;24.92;;;;;;;;;;5089270;28;20058;-89
2022/03/31 04:10:03;;;;;;;62.03;27.85;;;;;;;;;;5089412;28;20028;-88
2022/03/31 04:12:29;;;;;;;55.72;26.05;;;;;;;;;;5089444;28;20016;-91
2022/03/31 04:14:58;;;;;;;58.30;24.98;;;;;;;;;;5083535;28;20020;-89
2022/03/31 04:17:35;;;;;;;53.05;24.17;;;;;;;;;;5088869;28;20034;-91
2022/03/31 04:20:04;;;;;;;51.17;24.90;;;;;;;;;;5088766;28;20024;-91
2022/03/31 04:22:33;;;;;;;55.17;26.88;;;;;;;;;;5082217;28;20047;-91
2022/03/31 04:24:59;;;;;;;57.80;26.63;;;;;;;;;;5090586;28;20032;-88
2022/03/31 04:27:25;;;;;;;56.97;25.80;;;;;;;;;;5088472;28;20034;-90
2022/03/31 04:29:51;;;;;;;53.08;25.30;;;;;;;;;;5088164;28;20029;-89
2022/03/31 04:32:18;;;;;;;49.42;23.88;;;;;;;;;;5090141;28;20388;-88
2022/03/31 04:34:46;;;;;;;48.08;23.35;;;;;;;;;;5089224;28;20024;-89
2022/03/31 04:37:15;;;;;;;51.83;23.63;;;;;;;;;;5090929;28;20020;-89
2022/03/31 04:39:41;;;;;;;47.55;24.02;;;;;;;;;;5089080;28;20483;-89
2022/03/31 04:42:09;;;;;;;50.88;22.55;;;;;;;;;;5088820;28;20028;-89
2022/03/31 04:44:37;;;;;;;46.72;23.30;;;;;;;;;;5088801;28;20118;-88
2022/03/31 04:47:04;;;;;;;45.10;21.75;;;;;;;;;;5088816;28;20028;-89
2022/03/31 04:49:30;;;;;;;56.63;24.70;;;;;;;;;;5089157;28;20020;-87
2022/03/31 04:51:56;;;;;;;47.88;23.67;;;;;;;;;;5088742;28;20476;-88
2022/03/31 04:54:25;;;;;;;46.25;23.92;;;;;;;;;;5088708;28;20126;-89
2022/03/31 06:27:55;;;;;;;38.67;19.95;;;;;;;;;;6194603;22;1315949;-89
2022/03/31 06:30:22;;;;;;;43.90;20.95;;;;;;;;;;6249113;23;20015;-89
2022/03/31 06:32:48;;;;;;;45.85;21.27;;;;;;;;;;6247829;23;20000;-89
2022/03/31 06:35:15;;;;;;;39.33;20.00;;;;;;;;;;6249801;23;20909;-89
2022/03/31 06:37:42;;;;;;;36.63;18.45;;;;;;;;;;6247806;23;20011;-88
2022/03/31 06:40:10;;;;;;;39.67;19.30;;;;;;;;;;6247756;23;20008;-88
2022/03/31 06:42:36;;;;;;;40.53;18.70;;;;;;;;;;6248168;23;20000;-90
2022/03/31 06:45:02;;;;;;;37.67;17.75;;;;;;;;;;6248054;23;20494;-89
2022/03/31 06:47:28;;;;;;;40.42;19.08;;;;;;;;;;6249185;23;20003;-89
2022/03/31 06:49:54;;;;;;;35.58;17.88;;;;;;;;;;6250488;23;19996;-89
2022/03/31 06:52:20;;;;;;;30.20;16.27;;;;;;;;;;6250042;23;20014;-89
2022/03/31 06:54:46;;;;;;;29.83;16.50;;;;;;;;;;6247717;23;20016;-89
2022/03/31 06:57:12;;;;;;;28.63;15.48;;;;;;;;;;6250276;23;20012;-90
2022/03/31 06:59:38;;;;;;;32.30;16.02;;;;;;;;;;6248423;23;20050;-92
2022/03/31 07:02:04;;;;;;;31.40;15.88;;;;;;;;;;6249450;23;20000;-90
2022/03/31 07:04:30;;;;;;;29.33;15.20;;;;;;;;;;6249384;23;20004;-90
2022/03/31 07:06:57;;;;;;;27.58;13.20;;;;;;;;;;6246832;23;20070;-89
2022/03/31 07:09:23;;;;;;;30.48;14.48;;;;;;;;;;6242438;23;20438;-89
2022/03/31 07:11:49;;;;;;;22.88;13.70;;;;;;;;;;6241083;23;20015;-90
2022/03/31 07:14:15;;;;;;;28.08;13.60;;;;;;;;;;6240765;23;20437;-90
2022/03/31 07:16:41;;;;;;;22.65;13.15;;;;;;;;;;6241134;23;20150;-91
2022/03/31 07:19:07;;;;;;;26.23;13.63;;;;;;;;;;6242638;23;20074;-92
2022/03/31 07:21:33;;;;;;;22.05;11.85;;;;;;;;;;6242782;23;20004;-90
2022/03/31 07:24:01;;;;;;;19.63;12.05;;;;;;;;;;6242823;23;19996;-89
2022/03/31 07:26:27;;;;;;;18.38;10.45;;;;;;;;;;6242744;22;20015;-89
2022/03/31 07:28:53;;;;;;;21.40;11.23;;;;;;;;;;6241732;23;20004;-90
2022/03/31 07:31:20;;;;;;;20.63;10.73;;;;;;;;;;6240720;23;20000;-90
2022/03/31 07:33:46;;;;;;;19.75;10.73;;;;;;;;;;6242838;22;20000;-91
2022/03/31 07:36:12;;;;;;;16.52;9.63;;;;;;;;;;6242287;23;20008;-91
2022/03/31 07:38:38;;;;;;;16.10;8.98;;;;;;;;;;6240999;23;20380;-91
2022/03/31 07:41:05;;;;;;;16.35;9.25;;;;;;;;;;6242031;23;20079;-92
2022/03/31 07:43:31;;;;;;;17.15;9.85;;;;;;;;;;6240241;23;20004;-91
2022/03/31 07:45:58;;;;;;;14.85;8.98;;;;;;;;;;6242733;23;20034;-91
2022/03/31 07:48:24;;;;;;;17.23;10.13;;;;;;;;;;6242963;22;20365;-89
2022/03/31 07:50:50;;;;;;;15.02;8.40;;;;;;;;;;6241898;23;20008;-90
2022/03/31 07:53:17;;;;;;;15.52;9.93;;;;;;;;;;6241939;23;20003;-90
2022/03/31 07:55:43;;;;;;;19.30;9.13;;;;;;;;;;6242050;22;20012;-90
2022/03/31 07:58:09;;;;;;;11.20;7.45;;;;;;;;;;6242194;23;20075;-91
2022/03/31 08:00:35;;;;;;;14.27;8.20;;;;;;;;;;6243213;23;20004;-90
2022/03/31 08:03:01;;;;;;;11.60;6.88;;;;;;;;;;6242381;23;20071;-93
2022/03/31 08:05:35;;;;;;;14.02;7.75;;;;;;;;;;6243407;22;20008;-90
2022/03/31 08:08:01;;;;;;;10.05;6.95;;;;;;;;;;6242522;22;20004;-90
2022/03/31 08:10:27;;;;;;;9.93;6.18;;;;;;;;;;6243299;23;20000;-90
2022/03/31 08:12:53;;;;;;;9.38;6.60;;;;;;;;;;6242054;23;20383;-90
2022/03/31 08:15:19;;;;;;;10.02;6.63;;;;;;;;;;6242549;23;20091;-91
2022/03/31 08:17:47;;;;;;;9.85;6.32;;;;;;;;;;6241776;23;20023;-90
2022/03/31 08:20:13;;;;;;;7.78;5.50;;;;;;;;;;6241697;22;20036;-91
2022/03/31 08:22:40;;;;;;;7.35;5.40;;;;;;;;;;6242023;23;20000;-91
2022/03/31 08:25:07;;;;;;;7.55;4.80;;;;;;;;;;6240368;23;20000;-92
2022/03/31 08:27:35;;;;;;;9.57;4.93;;;;;;;;;;6239961;23;20379;-89
2022/03/31 08:30:02;;;;;;;5.90;4.33;;;;;;;;;;6242556;22;20000;-89
2022/03/31 08:32:28;;;;;;;8.80;4.38;;;;;;;;;;6241144;23;20215;-89
2022/03/31 08:34:54;;;;;;;8.65;4.85;;;;;;;;;;6240160;23;20011;-91
2022/03/31 08:37:20;;;;;;;6.00;4.20;;;;;;;;;;6240004;23;20015;-89
2022/03/31 08:39:46;;;;;;;8.32;4.70;;;;;;;;;;6239983;23;20341;-91
2022/03/31 08:42:12;;;;;;;6.00;4.25;;;;;;;;;;6241312;23;20451;-90
2022/03/31 08:44:39;;;;;;;7.07;4.32;;;;;;;;;;6241535;23;20448;-90
2022/03/31 08:47:08;;;;;;;7.78;4.60;;;;;;;;;;6240041;23;20004;-91
2022/03/31 08:49:35;;;;;;;7.45;4.75;;;;;;;;;;6242133;22;20435;-91
2022/03/31 08:52:03;;;;;;;6.22;4.75;;;;;;;;;;6242592;23;20023;-92
2022/03/31 08:54:29;;;;;;;7.40;5.05;;;;;;;;;;6242325;22;20008;-91
2022/03/31 08:56:55;;;;;;;6.50;4.45;;;;;;;;;;6240328;23;20054;-89
2022/03/31 08:59:21;;;;;;;6.47;4.43;;;;;;;;;;6241569;23;20003;-90
2022/03/31 09:01:47;;;;;;;5.65;4.25;;;;;;;;;;6241552;23;20067;-89
2022/03/31 09:04:20;;;;;;;7.55;4.07;;;;;;;;;;6241658;23;20007;-90
2022/03/31 09:06:48;;;;;;;7.13;3.97;;;;;;;;;;6241705;23;20004;-91
2022/03/31 09:09:16;;;;;;;7.15;4.50;;;;;;;;;;6241218;23;20333;-89
2022/03/31 09:11:46;;;;;;;5.07;3.72;;;;;;;;;;6241544;22;20004;-90
2022/03/31 09:14:13;;;;;;;6.82;3.60;;;;;;;;;;6239942;23;20026;-91
2022/03/31 09:16:40;;;;;;;5.55;3.60;;;;;;;;;;6239699;23;20023;-90
2022/03/31 09:19:10;;;;;;;6.10;3.35;;;;;;;;;;6239885;23;20007;-90
2022/03/31 09:21:49;;;;;;;6.00;3.65;;;;;;;;;;6241330;23;20007;-89
2022/03/31 09:24:16;;;;;;;8.07;3.40;;;;;;;;;;6241419;23;20027;-88
2022/03/31 09:26:49;;;;;;;8.27;3.70;;;;;;;;;;6265652;22;20016;-91
2022/03/31 09:29:17;;;;;;;4.35;3.08;;;;;;;;;;6251141;23;20028;-91
2022/03/31 09:31:43;;;;;;;;;;;;;;;;;;6242599;22;20050;-90
2022/03/31 09:34:09;;;;;;;5.63;2.90;;;;;;;;;;6241015;23;19903;-92
2022/03/31 09:36:37;;;;;;;5.28;3.00;;;;;;;;;;6242054;23;20350;-90
2022/03/31 09:39:07;;;;;;;4.07;2.33;;;;;;;;;;6242822;23;20000;-91
2022/03/31 09:41:37;;;;;;;2.72;2.00;;;;;;;;;;6244097;22;20004;-91
2022/03/31 09:44:07;;;;;;;1.58;1.48;;;;;;;;;;6242863;23;20004;-90
2022/03/31 09:46:35;;;;;;;1.60;1.50;;;;;;;;;;6242670;23;20003;-91
2022/03/31 09:49:11;;;;;;;1.40;1.30;;;;;;;;;;6243266;22;20428;-92
2022/03/31 09:51:38;;;;;;;1.20;1.20;;;;;;;;;;6240520;23;20008;-89
2022/03/31 09:54:04;;;;;;;1.35;1.25;;;;;;;;;;6242993;23;20002;-90
2022/03/31 09:56:34;;;;;;;2.33;1.73;;;;;;;;;;6240043;23;20020;-93
2022/03/31 09:59:01;;;;;;;1.48;1.38;;;;;;;;;;6241605;22;20028;-90
2022/03/31 10:01:27;;;;;;;3.92;1.60;;;;;;;;;;6241504;23;20413;-90
2022/03/31 10:03:55;;;;;;;4.10;1.88;;;;;;;;;;6239886;23;20023;-92
2022/03/31 10:06:21;;;;;;;7.43;1.90;;;;;;;;;;6239774;23;20007;-91
2022/03/31 10:08:48;;;;;;;1.70;1.60;;;;;;;;;;6239566;23;20090;-89
2022/03/31 10:11:14;;;;;;;2.65;1.90;;;;;;;;;;6240835;23;20000;-89
2022/03/31 10:13:55;;;;;;;13.13;9.23;;;;;;;;;;6240889;23;20004;-89
2022/03/31 10:16:26;;;;;;;7.70;6.20;;;;;;;;;;6241562;23;20016;-89
2022/03/31 10:18:52;;;;;;;2.20;1.80;;;;;;;;;;6241497;23;19997;-89
2022/03/31 10:21:28;;;;;;;3.53;2.30;;;;;;;;;;6240968;23;20004;-89
2022/03/31 10:26:41;;;;;;;2.10;1.90;;;;;;;;;;6241260;23;20027;-90
2022/03/31 10:29:16;;;;;;;1.90;1.80;;;;;;;;;;6242373;23;20007;-88
2022/03/31 10:31:46;;;;;;;29.92;14.95;;;;;;;;;;6239547;23;20000;-90
2022/03/31 10:34:24;;;;;;;1.38;1.20;;;;;;;;;;6240932;23;20019;-90
2022/03/31 10:36:50;;;;;;;1.58;1.38;;;;;;;;;;6240001;23;20081;-91
2022/03/31 10:39:23;;;;;;;85.25;41.50;;;;;;;;;;6239865;23;20000;-89
2022/03/31 10:42:00;;;;;;;22.17;10.63;;;;;;;;;;6241920;23;20405;-92
2022/03/31 10:44:26;;;;;;;1.40;1.30;;;;;;;;;;6242184;23;20023;-91
2022/03/31 10:47:03;;;;;;;3.67;1.42;;;;;;;;;;6243460;23;20004;-91
2022/03/31 10:49:30;;;;;;;3.15;1.50;;;;;;;;;;6242254;23;20091;-92
2022/03/31 10:51:56;;;;;;;1.70;1.60;;;;;;;;;;6241691;23;20004;-89
2022/03/31 10:54:24;;;;;;;1.92;1.70;;;;;;;;;;6244124;23;20006;-92
2022/03/31 10:57:01;;;;;;;1.65;1.52;;;;;;;;;;6244637;23;20344;-90
2022/03/31 10:59:27;;;;;;;2.33;1.40;;;;;;;;;;6244033;23;20357;-92
2022/03/31 11:01:53;;;;;;;3.80;1.80;;;;;;;;;;6249089;23;20432;-91
2022/03/31 11:04:27;;;;;;;1.95;1.50;;;;;;;;;;6246550;23;19996;-90
2022/03/31 11:06:55;;;;;;;3.00;1.70;;;;;;;;;;6246086;23;20067;-91
2022/03/31 11:09:21;;;;;;;;;;;;;;;;;;6248910;22;20028;-89
2022/03/31 11:11:51;;;;;;;2.70;1.65;;;;;;;;;;6245368;23;19906;-93
2022/03/31 11:14:17;;;;;;;3.67;1.77;;;;;;;;;;6246248;23;20004;-90
2022/03/31 11:16:51;;;;;;;4.10;1.75;;;;;;;;;;6247005;23;20433;-93
2022/03/31 11:19:19;;;;;;;3.72;2.13;;;;;;;;;;6245383;23;20027;-92
2022/03/31 11:21:48;;;;;;;2.50;2.00;;;;;;;;;;6246933;22;20060;-91
2022/03/31 11:24:14;;;;;;;3.33;2.10;;;;;;;;;;6246645;23;20030;-92
2022/03/31 11:26:44;;;;;;;3.65;2.45;;;;;;;;;;6246418;23;20060;-91
2022/03/31 11:29:17;;;;;;;1.90;1.80;;;;;;;;;;6244418;23;20008;-93
2022/03/31 11:31:50;;;;;;;3.28;2.05;;;;;;;;;;6245416;23;20000;-93
2022/03/31 11:34:21;;;;;;;6.97;4.07;;;;;;;;;;6245056;23;20000;-93
2022/03/31 11:36:47;;;;;;;50.55;32.22;;;;;;;;;;6244869;23;20045;-91
2022/03/31 11:39:13;;;;;;;6.13;3.80;;;;;;;;;;6246601;22;19996;-92
2022/03/31 11:41:43;;;;;;;2.72;2.08;;;;;;;;;;6247270;23;20004;-93
2022/03/31 11:44:09;;;;;;;3.45;2.13;;;;;;;;;;6244506;23;20074;-90
2022/03/31 11:46:39;;;;;;;3.00;2.03;;;;;;;;;;6243726;23;19996;-89
2022/03/31 11:49:13;;;;;;;2.35;2.15;;;;;;;;;;6241410;23;20038;-91
2022/03/31 11:51:39;;;;;;;5.38;2.35;;;;;;;;;;6242401;23;20004;-90
2022/03/31 11:54:09;;;;;;;3.05;1.92;;;;;;;;;;6241465;23;20055;-91
2022/03/31 11:56:35;;;;;;;3.15;2.30;;;;;;;;;;6241536;23;20348;-90
2022/03/31 11:59:03;;;;;;;3.83;2.20;;;;;;;;;;6243615;23;20345;-90
2022/03/31 12:01:33;;;;;;;2.30;2.00;;;;;;;;;;6243063;23;20008;-91
2022/03/31 12:03:59;;;;;;;3.28;2.10;;;;;;;;;;6241650;23;20084;-90
2022/03/31 12:06:27;;;;;;;2.78;1.80;;;;;;;;;;6241609;23;20008;-89
2022/03/31 12:08:55;;;;;;;3.47;2.10;;;;;;;;;;6242662;23;20425;-88
2022/03/31 12:11:21;;;;;;;2.53;2.00;;;;;;;;;;6242692;23;20018;-89
2022/03/31 12:13:48;;;;;;;3.28;2.40;;;;;;;;;;6241729;23;20066;-91
2022/03/31 12:16:14;;;;;;;2.55;2.35;;;;;;;;;;6241444;23;20058;-90
2022/03/31 12:18:43;;;;;;;4.50;2.05;;;;;;;;;;6243113;23;20062;-89
2022/03/31 12:21:11;;;;;;;2.30;2.10;;;;;;;;;;6244855;23;20004;-89
2022/03/31 12:23:41;;;;;;;4.68;2.10;;;;;;;;;;6242235;23;20004;-91
2022/03/31 12:26:34;;;;;;;4.88;2.45;;;;;;;;;;6243564;23;20004;-89
2022/03/31 12:29:01;;;;;;;2.55;2.30;;;;;;;;;;6242342;23;20030;-90
2022/03/31 12:31:37;;;;;;;6.32;3.35;;;;;;;;;;6240877;23;20054;-89
2022/03/31 12:34:04;;;;;;;5.30;2.70;;;;;;;;;;6242707;22;20007;-88
2022/03/31 12:36:34;;;;;;;4.82;2.63;;;;;;;;;;6241075;23;20395;-91
2022/03/31 12:39:03;;;;;;;7.47;3.38;;;;;;;;;;6240880;23;19992;-89
2022/03/31 12:41:36;;;;;;;10.40;5.38;;;;;;;;;;6240828;23;20384;-90
2022/03/31 12:44:10;;;;;;;32.22;13.65;;;;;;;;;;6241470;23;20000;-91
2022/03/31 12:46:45;;;;;;;103.68;52.25;;;;;;;;;;6241457;23;20019;-89
2022/03/31 12:49:15;;;;;;;22.05;15.10;;;;;;;;;;6242761;23;20468;-90
2022/03/31 12:51:49;;;;;;;55.58;22.38;;;;;;;;;;6241683;23;20715;-90
2022/03/31 12:54:26;;;;;;;4.75;3.10;;;;;;;;;;6241102;23;20004;-90
2022/03/31 12:56:55;;;;;;;49.20;25.35;;;;;;;;;;6242122;23;20079;-91
2022/03/31 12:59:26;;;;;;;7.97;2.53;;;;;;;;;;6241051;23;20035;-90
2022/03/31 13:02:11;;;;;;;7.68;2.40;;;;;;;;;;6242518;22;20008;-89
2022/03/31 13:04:46;;;;;;;5.32;2.35;;;;;;;;;;6241729;23;19996;-91
2022/03/31 13:07:12;;;;;;;4.15;2.78;;;;;;;;;;6243672;23;20067;-91
2022/03/31 13:09:38;;;;;;;4.63;2.60;;;;;;;;;;6242026;23;20110;-92
2022/03/31 13:12:09;;;;;;;4.30;2.35;;;;;;;;;;6243970;23;20007;-90
2022/03/31 13:14:45;;;;;;;10.00;3.05;;;;;;;;;;6241718;22;20012;-89
2022/03/31 13:17:15;;;;;;;4.45;2.75;;;;;;;;;;6242626;23;20004;-90
2022/03/31 13:19:42;;;;;;;83.18;40.42;;;;;;;;;;6243564;23;19997;-91
2022/03/31 13:22:09;;;;;;;6.03;3.08;;;;;;;;;;6240911;23;20426;-91
2022/03/31 13:24:35;;;;;;;142.00;53.25;;;;;;;;;;6243393;23;20055;-91
2022/03/31 13:27:01;;;;;;;155.52;57.70;;;;;;;;;;6242871;23;20043;-91
2022/03/31 13:29:28;;;;;;;6.03;3.70;;;;;;;;;;6242440;23;19997;-90
2022/03/31 13:31:55;;;;;;;9.43;3.35;;;;;;;;;;6240408;23;20008;-90
2022/03/31 13:34:22;;;;;;;4.53;3.30;;;;;;;;;;6242469;22;20004;-90
2022/03/31 13:36:48;;;;;;;3.65;3.10;;;;;;;;;;6241972;23;20058;-88
2022/03/31 13:39:15;;;;;;;8.40;3.25;;;;;;;;;;6244159;23;20023;-90
2022/03/31 13:41:45;;;;;;;7.25;2.90;;;;;;;;;;6241538;23;20015;-90
2022/03/31 13:44:12;;;;;;;155.65;58.28;;;;;;;;;;6242885;23;20000;-91
2022/03/31 13:46:39;;;;;;;10.40;2.90;;;;;;;;;;6242769;22;20225;-91
2022/03/31 13:49:06;;;;;;;4.65;2.55;;;;;;;;;;6242729;22;20058;-88
2022/03/31 13:51:32;;;;;;;26.17;8.63;;;;;;;;;;6239849;23;20387;-91
2022/03/31 13:54:05;;;;;;;96.55;33.15;;;;;;;;;;6241357;23;20005;-91
2022/03/31 13:56:33;;;;;;;313.40;121.07;;;;;;;;;;6239279;23;20043;-90
2022/03/31 14:01:43;;;;;;;8.27;3.10;;;;;;;;;;6241894;23;20103;-89
2022/03/31 14:04:09;;;;;;;72.40;30.65;;;;;;;;;;6241899;23;20006;-91
2022/03/31 14:06:35;;;;;;;8.95;2.75;;;;;;;;;;6243807;23;20405;-92
2022/03/31 14:09:03;;;;;;;8.27;2.97;;;;;;;;;;6243754;22;20054;-89
2022/03/31 14:11:34;;;;;;;8.90;3.20;;;;;;;;;;6239916;23;20057;-89
2022/03/31 14:14:01;;;;;;;6.75;3.15;;;;;;;;;;6240231;23;20087;-91
2022/03/31 14:16:28;;;;;;;5.63;3.17;;;;;;;;;;6241707;23;20012;-90
2022/03/31 14:18:58;;;;;;;9.50;2.97;;;;;;;;;;6242636;23;20000;-90
2022/03/31 14:21:24;;;;;;;11.82;4.15;;;;;;;;;;6242544;23;20011;-89
2022/03/31 14:23:51;;;;;;;4.28;2.88;;;;;;;;;;6243635;23;19996;-89
2022/03/31 14:26:19;;;;;;;35.40;13.70;;;;;;;;;;6244337;23;20015;-88
2022/03/31 14:28:46;;;;;;;3.15;2.20;;;;;;;;;;6243110;23;20028;-89
2022/03/31 14:31:15;;;;;;;7.60;2.45;;;;;;;;;;6244145;23;20000;-91
2022/03/31 14:33:42;;;;;;;33.08;11.82;;;;;;;;;;6242783;23;20012;-92
2022/03/31 14:36:08;;;;;;;8.35;2.45;;;;;;;;;;6245073;23;20058;-91
2022/03/31 14:38:35;;;;;;;6.32;2.22;;;;;;;;;;6243717;23;20050;-90
2022/03/31 14:41:09;;;;;;;3.22;1.85;;;;;;;;;;6244654;23;20019;-90
2022/03/31 14:43:36;;;;;;;231.77;87.50;;;;;;;;;;6219985;23;20011;-91
2022/03/31 14:46:06;;;;;;;9.27;1.95;;;;;;;;;;6243456;23;20083;-91
2022/03/31 14:48:32;;;;;;;105.90;38.35;;;;;;;;;;6244165;23;20000;-92
2022/03/31 14:50:59;;;;;;;318.27;116.78;;;;;;;;;;6243594;23;20008;-92
2022/03/31 14:53:25;;;;;;;30.08;10.40;;;;;;;;;;6245431;23;20437;-89
2022/03/31 14:55:51;;;;;;;5.35;2.35;;;;;;;;;;6245442;23;20008;-90
2022/03/31 14:58:17;;;;;;;5.47;3.28;;;;;;;;;;6244424;23;20000;-89
2022/03/31 15:00:44;;;;;;;3.13;1.90;;;;;;;;;;6242178;23;20000;-89
2022/03/31 15:03:10;;;;;;;411.20;150.65;;;;;;;;;;6241699;23;20011;-88
2022/03/31 15:05:39;;;;;;;580.72;229.18;;;;;;;;;;6243958;23;20376;-91
2022/03/31 15:08:06;;;;;;;8.32;2.15;;;;;;;;;;6243577;23;20020;-90
2022/03/31 15:16:04;;;;;;;12.05;2.53;;;;;;;;;;6244361;23;20476;-90
2022/03/31 15:18:40;;;;;;;6.93;2.30;;;;;;;;;;6245331;23;20022;-91
2022/03/31 15:21:09;;;;;;;4.35;2.10;;;;;;;;;;6244069;23;20000;-91
2022/03/31 15:23:38;;;;;;;5.43;2.40;;;;;;;;;;6242535;23;20007;-90
2022/03/31 15:26:04;;;;;;;;;;;;;;;;;;6243733;23;20073;-90
2022/03/31 15:28:39;;;;;;;3.13;1.20;;;;;;;;;;6244680;23;19903;-92
2022/03/31 15:31:19;;;;;;;10.23;5.90;;;;;;;;;;6243702;23;20429;-94
2022/03/31 15:33:51;;;;;;;2.40;1.67;;;;;;;;;;6244933;23;20012;-92
2022/03/31 15:36:17;;;;;;;2.17;1.73;;;;;;;;;;6243420;23;20353;-87
2022/03/31 15:38:44;;;;;;;2.10;1.65;;;;;;;;;;6242661;23;20076;-91
2022/03/31 15:41:10;;;;;;;5.05;2.42;;;;;;;;;;6242348;23;20058;-91
2022/03/31 15:43:36;;;;;;;4.25;2.00;;;;;;;;;;6241250;23;20005;-89
2022/03/31 15:46:32;;;;;;;4.05;2.03;;;;;;;;;;6242410;23;20015;-90
2022/03/31 15:48:57;;;;;;;5.38;2.30;;;;;;;;;;6243467;23;20325;-88
2022/03/31 15:51:23;;;;;;;106.68;43.53;;;;;;;;;;6244081;23;20011;-89
2022/03/31 15:53:49;;;;;;;5.88;2.03;;;;;;;;;;6248035;23;20024;-87
2022/03/31 15:56:15;;;;;;;3.55;1.90;;;;;;;;;;6215838;23;20676;-87
2022/03/31 15:58:41;;;;;;;17.48;8.02;;;;;;;;;;6242616;23;20004;-88
2022/03/31 16:01:10;;;;;;;203.97;26.30;;;;;;;;;;6243628;23;20015;-88
2022/03/31 16:03:36;;;;;;;133.57;57.22;;;;;;;;;;6244420;23;20314;-87
2022/03/31 16:06:07;;;;;;;5.25;2.10;;;;;;;;;;6242856;23;20368;-88
2022/03/31 16:08:33;;;;;;;7.80;2.13;;;;;;;;;;6250358;23;20341;-88
2022/03/31 16:11:00;;;;;;;7.00;2.10;;;;;;;;;;6251965;23;20345;-89
2022/03/31 16:13:26;;;;;;;2.65;2.40;;;;;;;;;;6245019;23;20004;-85
2022/03/31 16:15:52;;;;;;;5.18;2.72;;;;;;;;;;6244749;23;20004;-89